sensor_id;sensor_type;location;lat;lon;timestamp;temperature;humidity
2579;DHT22;1299;48.282;14.398;2023-07-31T00:01:56;18.60;99.90
2579;DHT22;1299;48.282;14.398;2023-07-31T00:04:24;18.60;99.90
2579;DHT22;1299;48.282;14.398;2023-07-31T00:06:51;18.60;99.90
2579;DHT22;1299;48.282;14.398;2023-07-31T00:09:18;18.70;99.90
2579;DHT22;1299;48.282;14.398;2023-07-31T00:11:45;18.70;99.90
2579;DHT22;1299;48.282;14.398;2023-07-31T00:14:12;18.70;99.90
2579;DHT22;1299;48.282;14.398;2023-07-31T00:16:39;18.70;99.90
2579;DHT22;1299;48.282;14.398;2023-07-31T00:19:06;18.70;99.90
2579;DHT22;1299;48.282;14.398;2023-07-31T00:21:34;18.80;99.90
2579;DHT22;1299;48.282;14.398;2023-07-31T00:24:01;18.80;99.90
2579;DHT22;1299;48.282;14.398;2023-07-31T00:26:28;18.70;99.90
2579;DHT22;1299;48.282;14.398;2023-07-31T00:28:55;18.70;99.90
2579;DHT22;1299;48.282;14.398;2023-07-31T00:31:22;18.70;99.90
2579;DHT22;1299;48.282;14.398;2023-07-31T00:33:49;18.70;99.90
2579;DHT22;1299;48.282;14.398;2023-07-31T00:36:16;18.70;99.90
2579;DHT22;1299;48.282;14.398;2023-07-31T00:38:44;18.70;99.90
2579;DHT22;1299;48.282;14.398;2023-07-31T00:41:11;18.70;99.90
2579;DHT22;1299;48.282;14.398;2023-07-31T00:43:38;18.80;99.90
2579;DHT22;1299;48.282;14.398;2023-07-31T00:46:05;18.70;99.90
2579;DHT22;1299;48.282;14.398;2023-07-31T00:48:34;18.70;99.90
2579;DHT22;1299;48.282;14.398;2023-07-31T00:51:01;18.70;99.90
2579;DHT22;1299;48.282;14.398;2023-07-31T00:53:28;18.80;99.90
2579;DHT22;1299;48.282;14.398;2023-07-31T00:55:57;18.80;99.90
2579;DHT22;1299;48.282;14.398;2023-07-31T00:58:24;18.80;99.90
2579;DHT22;1299;48.282;14.398;2023-07-31T01:00:51;18.80;99.90
2579;DHT22;1299;48.282;14.398;2023-07-31T01:03:18;18.80;99.90
2579;DHT22;1299;48.282;14.398;2023-07-31T01:05:56;18.80;99.90
2579;DHT22;1299;48.282;14.398;2023-07-31T01:08:32;18.70;99.90
2579;DHT22;1299;48.282;14.398;2023-07-31T01:11:07;18.70;99.90
2579;DHT22;1299;48.282;14.398;2023-07-31T01:13:36;18.70;99.90
2579;DHT22;1299;48.282;14.398;2023-07-31T01:16:03;18.70;99.90
2579;DHT22;1299;48.282;14.398;2023-07-31T01:18:30;18.60;99.90
2579;DHT22;1299;48.282;14.398;2023-07-31T01:21:03;18.50;99.90
2579;DHT22;1299;48.282;14.398;2023-07-31T01:24:08;18.50;99.90
2579;DHT22;1299;48.282;14.398;2023-07-31T01:26:40;18.40;99.90
2579;DHT22;1299;48.282;14.398;2023-07-31T01:29:17;18.40;99.90
2579;DHT22;1299;48.282;14.398;2023-07-31T01:31:48;18.40;99.90
2579;DHT22;1299;48.282;14.398;2023-07-31T01:34:17;18.40;99.90
2579;DHT22;1299;48.282;14.398;2023-07-31T01:36:45;18.40;99.90
2579;DHT22;1299;48.282;14.398;2023-07-31T01:39:12;18.40;99.90
2579;DHT22;1299;48.282;14.398;2023-07-31T01:41:40;18.30;99.90
2579;DHT22;1299;48.282;14.398;2023-07-31T01:44:07;18.40;99.90
2579;DHT22;1299;48.282;14.398;2023-07-31T01:46:34;18.30;99.90
2579;DHT22;1299;48.282;14.398;2023-07-31T01:49:01;18.20;99.90
2579;DHT22;1299;48.282;14.398;2023-07-31T01:51:28;18.20;99.90
2579;DHT22;1299;48.282;14.398;2023-07-31T01:53:59;18.20;99.90
2579;DHT22;1299;48.282;14.398;2023-07-31T01:56:26;18.10;99.90
2579;DHT22;1299;48.282;14.398;2023-07-31T01:58:54;18.10;99.90
2579;DHT22;1299;48.282;14.398;2023-07-31T02:01:21;18.00;99.90
2579;DHT22;1299;48.282;14.398;2023-07-31T02:03:49;17.80;99.90
2579;DHT22;1299;48.282;14.398;2023-07-31T02:06:16;17.70;99.90
2579;DHT22;1299;48.282;14.398;2023-07-31T02:08:43;17.60;99.90
2579;DHT22;1299;48.282;14.398;2023-07-31T02:11:09;17.50;99.90
2579;DHT22;1299;48.282;14.398;2023-07-31T02:13:36;17.50;99.90
2579;DHT22;1299;48.282;14.398;2023-07-31T02:16:05;17.40;99.90
2579;DHT22;1299;48.282;14.398;2023-07-31T02:18:32;17.40;99.90
2579;DHT22;1299;48.282;14.398;2023-07-31T02:20:59;17.40;99.90
2579;DHT22;1299;48.282;14.398;2023-07-31T02:23:25;17.30;99.90
2579;DHT22;1299;48.282;14.398;2023-07-31T02:25:52;17.30;99.90
2579;DHT22;1299;48.282;14.398;2023-07-31T02:28:22;17.20;99.90
2579;DHT22;1299;48.282;14.398;2023-07-31T02:30:53;17.20;99.90
2579;DHT22;1299;48.282;14.398;2023-07-31T02:33:21;17.20;99.90
2579;DHT22;1299;48.282;14.398;2023-07-31T02:35:48;17.20;99.90
2579;DHT22;1299;48.282;14.398;2023-07-31T02:38:15;17.20;99.90
2579;DHT22;1299;48.282;14.398;2023-07-31T02:40:42;17.10;99.90
2579;DHT22;1299;48.282;14.398;2023-07-31T02:43:09;17.10;99.90
2579;DHT22;1299;48.282;14.398;2023-07-31T02:45:36;17.10;99.90
2579;DHT22;1299;48.282;14.398;2023-07-31T02:48:03;17.00;99.90
2579;DHT22;1299;48.282;14.398;2023-07-31T02:50:32;16.90;99.90
2579;DHT22;1299;48.282;14.398;2023-07-31T02:52:58;17.00;99.90
2579;DHT22;1299;48.282;14.398;2023-07-31T02:55:25;16.90;99.90
2579;DHT22;1299;48.282;14.398;2023-07-31T02:57:52;16.90;99.90
2579;DHT22;1299;48.282;14.398;2023-07-31T03:00:19;16.80;99.90
2579;DHT22;1299;48.282;14.398;2023-07-31T03:02:46;16.80;99.90
2579;DHT22;1299;48.282;14.398;2023-07-31T03:05:13;16.80;99.90
2579;DHT22;1299;48.282;14.398;2023-07-31T03:07:41;16.80;99.90
2579;DHT22;1299;48.282;14.398;2023-07-31T03:10:09;16.80;99.90
2579;DHT22;1299;48.282;14.398;2023-07-31T03:12:35;16.70;99.90
2579;DHT22;1299;48.282;14.398;2023-07-31T03:15:03;16.70;99.90
2579;DHT22;1299;48.282;14.398;2023-07-31T03:17:30;16.60;99.90
2579;DHT22;1299;48.282;14.398;2023-07-31T03:19:58;16.60;99.90
2579;DHT22;1299;48.282;14.398;2023-07-31T03:22:25;16.70;99.90
2579;DHT22;1299;48.282;14.398;2023-07-31T03:24:54;16.60;99.90
2579;DHT22;1299;48.282;14.398;2023-07-31T03:27:20;16.40;99.90
2579;DHT22;1299;48.282;14.398;2023-07-31T03:29:48;16.50;99.90
2579;DHT22;1299;48.282;14.398;2023-07-31T03:32:17;16.40;99.90
2579;DHT22;1299;48.282;14.398;2023-07-31T03:34:44;16.40;99.90
2579;DHT22;1299;48.282;14.398;2023-07-31T03:37:11;16.40;99.90
2579;DHT22;1299;48.282;14.398;2023-07-31T03:39:37;16.30;99.90
2579;DHT22;1299;48.282;14.398;2023-07-31T03:42:06;16.30;99.90
2579;DHT22;1299;48.282;14.398;2023-07-31T03:44:33;16.30;99.90
2579;DHT22;1299;48.282;14.398;2023-07-31T03:47:00;16.30;99.90
2579;DHT22;1299;48.282;14.398;2023-07-31T03:49:27;16.30;99.90
2579;DHT22;1299;48.282;14.398;2023-07-31T03:51:54;16.30;99.90
2579;DHT22;1299;48.282;14.398;2023-07-31T03:54:21;16.20;99.90
2579;DHT22;1299;48.282;14.398;2023-07-31T03:56:48;16.20;99.90
2579;DHT22;1299;48.282;14.398;2023-07-31T03:59:16;16.20;99.90
2579;DHT22;1299;48.282;14.398;2023-07-31T04:01:43;16.20;99.90
2579;DHT22;1299;48.282;14.398;2023-07-31T04:04:10;16.10;99.90
2579;DHT22;1299;48.282;14.398;2023-07-31T04:06:37;16.20;99.90
2579;DHT22;1299;48.282;14.398;2023-07-31T04:09:04;16.20;99.90
2579;DHT22;1299;48.282;14.398;2023-07-31T04:11:31;16.30;99.90
2579;DHT22;1299;48.282;14.398;2023-07-31T04:13:58;16.20;99.90
2579;DHT22;1299;48.282;14.398;2023-07-31T04:16:26;16.30;99.90
2579;DHT22;1299;48.282;14.398;2023-07-31T04:18:53;16.30;99.90
2579;DHT22;1299;48.282;14.398;2023-07-31T04:21:20;16.20;99.90
2579;DHT22;1299;48.282;14.398;2023-07-31T04:23:47;16.30;99.90
2579;DHT22;1299;48.282;14.398;2023-07-31T04:26:14;16.20;99.90
2579;DHT22;1299;48.282;14.398;2023-07-31T04:28:41;16.20;99.90
2579;DHT22;1299;48.282;14.398;2023-07-31T04:31:08;16.20;99.90
2579;DHT22;1299;48.282;14.398;2023-07-31T04:33:36;16.20;99.90
2579;DHT22;1299;48.282;14.398;2023-07-31T04:36:03;16.20;99.90
2579;DHT22;1299;48.282;14.398;2023-07-31T04:38:30;16.20;99.90
2579;DHT22;1299;48.282;14.398;2023-07-31T04:40:57;16.20;99.90
2579;DHT22;1299;48.282;14.398;2023-07-31T04:43:24;16.10;99.90
2579;DHT22;1299;48.282;14.398;2023-07-31T04:45:51;16.20;99.90
2579;DHT22;1299;48.282;14.398;2023-07-31T04:48:19;16.20;99.90
2579;DHT22;1299;48.282;14.398;2023-07-31T04:50:48;16.20;99.90
2579;DHT22;1299;48.282;14.398;2023-07-31T04:53:14;16.20;99.90
2579;DHT22;1299;48.282;14.398;2023-07-31T04:55:41;16.20;99.90
2579;DHT22;1299;48.282;14.398;2023-07-31T04:58:08;16.10;99.90
2579;DHT22;1299;48.282;14.398;2023-07-31T05:00:35;16.20;99.90
2579;DHT22;1299;48.282;14.398;2023-07-31T05:03:02;16.20;99.90
2579;DHT22;1299;48.282;14.398;2023-07-31T05:05:30;16.20;99.90
2579;DHT22;1299;48.282;14.398;2023-07-31T05:07:59;16.20;99.90
2579;DHT22;1299;48.282;14.398;2023-07-31T05:10:26;16.20;99.90
2579;DHT22;1299;48.282;14.398;2023-07-31T05:12:53;16.20;99.90
2579;DHT22;1299;48.282;14.398;2023-07-31T05:15:20;16.20;99.90
2579;DHT22;1299;48.282;14.398;2023-07-31T05:17:47;16.20;99.90
2579;DHT22;1299;48.282;14.398;2023-07-31T05:20:14;16.30;99.90
2579;DHT22;1299;48.282;14.398;2023-07-31T05:22:41;16.40;99.90
2579;DHT22;1299;48.282;14.398;2023-07-31T05:25:10;16.50;99.90
2579;DHT22;1299;48.282;14.398;2023-07-31T05:27:37;16.80;99.90
2579;DHT22;1299;48.282;14.398;2023-07-31T05:30:05;16.90;99.90
2579;DHT22;1299;48.282;14.398;2023-07-31T05:32:32;16.90;99.90
2579;DHT22;1299;48.282;14.398;2023-07-31T05:34:59;17.20;99.90
2579;DHT22;1299;48.282;14.398;2023-07-31T05:37:26;17.70;99.90
2579;DHT22;1299;48.282;14.398;2023-07-31T05:39:53;18.30;99.90
2579;DHT22;1299;48.282;14.398;2023-07-31T05:42:21;18.80;99.90
2579;DHT22;1299;48.282;14.398;2023-07-31T05:44:48;18.90;99.90
2579;DHT22;1299;48.282;14.398;2023-07-31T05:47:15;19.10;99.90
2579;DHT22;1299;48.282;14.398;2023-07-31T05:49:42;19.50;99.90
2579;DHT22;1299;48.282;14.398;2023-07-31T05:52:09;19.80;99.90
2579;DHT22;1299;48.282;14.398;2023-07-31T05:54:36;20.30;99.90
2579;DHT22;1299;48.282;14.398;2023-07-31T05:57:04;20.70;99.90
2579;DHT22;1299;48.282;14.398;2023-07-31T05:59:32;21.20;99.90
2579;DHT22;1299;48.282;14.398;2023-07-31T06:01:59;21.70;99.90
2579;DHT22;1299;48.282;14.398;2023-07-31T06:04:26;22.40;99.90
2579;DHT22;1299;48.282;14.398;2023-07-31T06:06:54;22.80;99.90
2579;DHT22;1299;48.282;14.398;2023-07-31T06:09:21;23.60;99.90
2579;DHT22;1299;48.282;14.398;2023-07-31T06:11:48;23.40;99.90
2579;DHT22;1299;48.282;14.398;2023-07-31T06:14:15;23.70;99.90
2579;DHT22;1299;48.282;14.398;2023-07-31T06:16:43;24.60;99.90
2579;DHT22;1299;48.282;14.398;2023-07-31T06:19:11;26.10;99.90
2579;DHT22;1299;48.282;14.398;2023-07-31T06:21:38;26.60;99.90
2579;DHT22;1299;48.282;14.398;2023-07-31T06:24:07;26.10;99.90
2579;DHT22;1299;48.282;14.398;2023-07-31T06:26:34;25.50;99.90
2579;DHT22;1299;48.282;14.398;2023-07-31T06:29:01;25.40;99.90
2579;DHT22;1299;48.282;14.398;2023-07-31T06:31:28;24.70;99.90
2579;DHT22;1299;48.282;14.398;2023-07-31T06:33:56;24.40;99.90
2579;DHT22;1299;48.282;14.398;2023-07-31T06:36:23;23.90;99.90
2579;DHT22;1299;48.282;14.398;2023-07-31T06:38:50;23.90;99.90
2579;DHT22;1299;48.282;14.398;2023-07-31T06:41:17;23.90;99.90
2579;DHT22;1299;48.282;14.398;2023-07-31T06:43:44;23.50;99.90
2579;DHT22;1299;48.282;14.398;2023-07-31T06:46:11;23.10;99.90
2579;DHT22;1299;48.282;14.398;2023-07-31T06:48:39;23.10;99.90
2579;DHT22;1299;48.282;14.398;2023-07-31T06:51:07;22.90;99.90
2579;DHT22;1299;48.282;14.398;2023-07-31T06:53:34;23.00;99.90
2579;DHT22;1299;48.282;14.398;2023-07-31T06:56:01;22.80;99.90
2579;DHT22;1299;48.282;14.398;2023-07-31T06:58:28;23.00;99.90
2579;DHT22;1299;48.282;14.398;2023-07-31T07:00:55;23.30;99.90
2579;DHT22;1299;48.282;14.398;2023-07-31T07:03:22;23.50;99.90
2579;DHT22;1299;48.282;14.398;2023-07-31T07:05:49;23.30;99.90
2579;DHT22;1299;48.282;14.398;2023-07-31T07:08:17;23.40;99.90
2579;DHT22;1299;48.282;14.398;2023-07-31T07:10:44;23.60;99.90
2579;DHT22;1299;48.282;14.398;2023-07-31T07:13:11;23.50;99.90
2579;DHT22;1299;48.282;14.398;2023-07-31T07:15:39;23.40;99.90
2579;DHT22;1299;48.282;14.398;2023-07-31T07:18:06;23.40;99.90
2579;DHT22;1299;48.282;14.398;2023-07-31T07:20:33;23.50;99.90
2579;DHT22;1299;48.282;14.398;2023-07-31T07:23:00;23.50;99.90
2579;DHT22;1299;48.282;14.398;2023-07-31T07:25:28;23.30;99.90
2579;DHT22;1299;48.282;14.398;2023-07-31T07:27:55;23.60;99.90
2579;DHT22;1299;48.282;14.398;2023-07-31T07:30:22;23.30;99.90
2579;DHT22;1299;48.282;14.398;2023-07-31T07:32:50;23.60;99.90
2579;DHT22;1299;48.282;14.398;2023-07-31T07:35:17;23.30;99.90
2579;DHT22;1299;48.282;14.398;2023-07-31T07:37:44;23.40;99.90
2579;DHT22;1299;48.282;14.398;2023-07-31T07:40:11;23.20;99.90
2579;DHT22;1299;48.282;14.398;2023-07-31T07:42:39;23.50;99.90
2579;DHT22;1299;48.282;14.398;2023-07-31T07:45:07;23.40;99.90
2579;DHT22;1299;48.282;14.398;2023-07-31T07:47:34;23.70;99.90
2579;DHT22;1299;48.282;14.398;2023-07-31T07:50:02;23.90;99.90
2579;DHT22;1299;48.282;14.398;2023-07-31T07:52:28;24.00;99.90
2579;DHT22;1299;48.282;14.398;2023-07-31T07:54:55;24.10;99.90
2579;DHT22;1299;48.282;14.398;2023-07-31T07:57:22;24.00;99.90
2579;DHT22;1299;48.282;14.398;2023-07-31T07:59:51;24.50;99.90
2579;DHT22;1299;48.282;14.398;2023-07-31T08:02:18;24.60;99.90
2579;DHT22;1299;48.282;14.398;2023-07-31T08:04:45;24.70;99.10
2579;DHT22;1299;48.282;14.398;2023-07-31T08:07:12;24.90;98.20
2579;DHT22;1299;48.282;14.398;2023-07-31T08:09:39;24.90;97.90
2579;DHT22;1299;48.282;14.398;2023-07-31T08:12:07;24.80;97.60
2579;DHT22;1299;48.282;14.398;2023-07-31T08:14:34;24.80;98.50
2579;DHT22;1299;48.282;14.398;2023-07-31T08:17:03;24.90;98.00
2579;DHT22;1299;48.282;14.398;2023-07-31T08:19:30;24.70;96.30
2579;DHT22;1299;48.282;14.398;2023-07-31T08:21:57;24.60;96.30
2579;DHT22;1299;48.282;14.398;2023-07-31T08:24:24;24.40;96.60
2579;DHT22;1299;48.282;14.398;2023-07-31T08:26:51;24.30;96.70
2579;DHT22;1299;48.282;14.398;2023-07-31T08:29:18;24.00;95.00
2579;DHT22;1299;48.282;14.398;2023-07-31T08:31:45;24.20;96.20
2579;DHT22;1299;48.282;14.398;2023-07-31T08:34:13;24.20;95.50
2579;DHT22;1299;48.282;14.398;2023-07-31T08:36:40;24.40;96.30
2579;DHT22;1299;48.282;14.398;2023-07-31T08:39:07;24.20;94.50
2579;DHT22;1299;48.282;14.398;2023-07-31T08:41:37;24.10;95.10
2579;DHT22;1299;48.282;14.398;2023-07-31T08:44:05;24.10;95.40
2579;DHT22;1299;48.282;14.398;2023-07-31T08:46:33;24.10;95.50
2579;DHT22;1299;48.282;14.398;2023-07-31T08:49:00;24.20;95.90
2579;DHT22;1299;48.282;14.398;2023-07-31T08:51:33;24.60;95.90
2579;DHT22;1299;48.282;14.398;2023-07-31T08:54:00;24.60;95.60
2579;DHT22;1299;48.282;14.398;2023-07-31T08:56:30;24.40;94.80
2579;DHT22;1299;48.282;14.398;2023-07-31T08:58:59;24.40;95.40
2579;DHT22;1299;48.282;14.398;2023-07-31T09:01:30;24.40;95.50
2579;DHT22;1299;48.282;14.398;2023-07-31T09:03:59;24.70;95.50
2579;DHT22;1299;48.282;14.398;2023-07-31T09:06:28;24.60;94.50
2579;DHT22;1299;48.282;14.398;2023-07-31T09:08:58;24.60;96.10
2579;DHT22;1299;48.282;14.398;2023-07-31T09:11:25;24.90;95.50
2579;DHT22;1299;48.282;14.398;2023-07-31T09:13:55;24.80;95.80
2579;DHT22;1299;48.282;14.398;2023-07-31T09:16:27;24.70;95.00
2579;DHT22;1299;48.282;14.398;2023-07-31T09:18:56;24.50;95.40
2579;DHT22;1299;48.282;14.398;2023-07-31T09:21:24;24.60;96.20
2579;DHT22;1299;48.282;14.398;2023-07-31T09:23:53;24.70;97.10
2579;DHT22;1299;48.282;14.398;2023-07-31T09:26:32;24.90;96.40
2579;DHT22;1299;48.282;14.398;2023-07-31T09:29:01;24.70;94.90
2579;DHT22;1299;48.282;14.398;2023-07-31T09:31:39;24.80;95.80
2579;DHT22;1299;48.282;14.398;2023-07-31T09:34:06;24.90;96.40
2579;DHT22;1299;48.282;14.398;2023-07-31T09:36:40;24.70;95.70
2579;DHT22;1299;48.282;14.398;2023-07-31T09:39:09;24.70;95.70
2579;DHT22;1299;48.282;14.398;2023-07-31T09:41:38;24.80;96.30
2579;DHT22;1299;48.282;14.398;2023-07-31T09:44:05;24.70;95.80
2579;DHT22;1299;48.282;14.398;2023-07-31T09:46:35;24.80;96.60
2579;DHT22;1299;48.282;14.398;2023-07-31T09:49:07;25.00;96.70
2579;DHT22;1299;48.282;14.398;2023-07-31T09:51:35;25.40;96.50
2579;DHT22;1299;48.282;14.398;2023-07-31T09:54:10;25.60;96.10
2579;DHT22;1299;48.282;14.398;2023-07-31T09:56:42;25.70;96.30
2579;DHT22;1299;48.282;14.398;2023-07-31T09:59:11;25.50;96.90
2579;DHT22;1299;48.282;14.398;2023-07-31T10:01:40;25.80;96.10
2579;DHT22;1299;48.282;14.398;2023-07-31T10:04:08;25.90;95.00
2579;DHT22;1299;48.282;14.398;2023-07-31T10:06:36;25.90;94.90
2579;DHT22;1299;48.282;14.398;2023-07-31T10:09:06;25.50;94.90
2579;DHT22;1299;48.282;14.398;2023-07-31T10:11:37;25.10;94.80
2579;DHT22;1299;48.282;14.398;2023-07-31T10:14:07;25.70;95.60
2579;DHT22;1299;48.282;14.398;2023-07-31T10:16:37;25.40;94.70
2579;DHT22;1299;48.282;14.398;2023-07-31T10:19:06;25.40;95.30
2579;DHT22;1299;48.282;14.398;2023-07-31T10:21:34;25.80;94.70
2579;DHT22;1299;48.282;14.398;2023-07-31T10:24:03;25.80;95.00
2579;DHT22;1299;48.282;14.398;2023-07-31T10:26:31;26.30;94.00
2579;DHT22;1299;48.282;14.398;2023-07-31T10:28:59;26.10;93.60
2579;DHT22;1299;48.282;14.398;2023-07-31T10:31:28;25.70;93.20
2579;DHT22;1299;48.282;14.398;2023-07-31T10:33:56;25.90;94.40
2579;DHT22;1299;48.282;14.398;2023-07-31T10:36:23;26.30;95.00
2579;DHT22;1299;48.282;14.398;2023-07-31T10:38:51;26.70;93.40
2579;DHT22;1299;48.282;14.398;2023-07-31T10:41:18;26.60;92.80
2579;DHT22;1299;48.282;14.398;2023-07-31T10:43:46;26.60;94.10
2579;DHT22;1299;48.282;14.398;2023-07-31T10:46:13;27.00;94.30
2579;DHT22;1299;48.282;14.398;2023-07-31T10:48:42;26.90;92.90
2579;DHT22;1299;48.282;14.398;2023-07-31T10:51:10;27.20;93.20
2579;DHT22;1299;48.282;14.398;2023-07-31T10:53:38;27.50;93.10
2579;DHT22;1299;48.282;14.398;2023-07-31T10:56:07;27.20;91.20
2579;DHT22;1299;48.282;14.398;2023-07-31T10:58:34;27.40;92.60
2579;DHT22;1299;48.282;14.398;2023-07-31T11:01:04;27.60;91.80
2579;DHT22;1299;48.282;14.398;2023-07-31T11:03:46;27.80;92.00
2579;DHT22;1299;48.282;14.398;2023-07-31T11:06:14;27.30;89.20
2579;DHT22;1299;48.282;14.398;2023-07-31T11:08:43;27.00;91.40
2579;DHT22;1299;48.282;14.398;2023-07-31T11:11:11;27.30;91.90
2579;DHT22;1299;48.282;14.398;2023-07-31T11:13:42;27.50;91.70
2579;DHT22;1299;48.282;14.398;2023-07-31T11:16:11;27.80;91.10
2579;DHT22;1299;48.282;14.398;2023-07-31T11:18:41;27.60;90.60
2579;DHT22;1299;48.282;14.398;2023-07-31T11:21:12;27.40;89.90
2579;DHT22;1299;48.282;14.398;2023-07-31T11:23:39;27.60;90.40
2579;DHT22;1299;48.282;14.398;2023-07-31T11:26:07;27.70;89.50
2579;DHT22;1299;48.282;14.398;2023-07-31T11:28:34;28.00;90.40
2579;DHT22;1299;48.282;14.398;2023-07-31T11:31:02;28.10;88.90
2579;DHT22;1299;48.282;14.398;2023-07-31T11:33:29;27.70;87.20
2579;DHT22;1299;48.282;14.398;2023-07-31T11:35:56;27.50;89.00
2579;DHT22;1299;48.282;14.398;2023-07-31T11:38:26;27.40;89.10
2579;DHT22;1299;48.282;14.398;2023-07-31T11:40:53;27.50;88.30
2579;DHT22;1299;48.282;14.398;2023-07-31T11:43:21;27.50;89.30
2579;DHT22;1299;48.282;14.398;2023-07-31T11:45:49;27.30;88.60
2579;DHT22;1299;48.282;14.398;2023-07-31T11:48:20;27.40;89.10
2579;DHT22;1299;48.282;14.398;2023-07-31T11:50:49;27.50;90.40
2579;DHT22;1299;48.282;14.398;2023-07-31T11:53:18;27.40;88.80
2579;DHT22;1299;48.282;14.398;2023-07-31T11:55:47;27.50;89.10
2579;DHT22;1299;48.282;14.398;2023-07-31T11:58:15;27.70;88.80
2579;DHT22;1299;48.282;14.398;2023-07-31T12:00:43;27.80;90.70
2579;DHT22;1299;48.282;14.398;2023-07-31T12:03:10;27.90;90.20
2579;DHT22;1299;48.282;14.398;2023-07-31T12:05:37;27.80;90.20
2579;DHT22;1299;48.282;14.398;2023-07-31T12:08:09;27.70;89.20
2579;DHT22;1299;48.282;14.398;2023-07-31T12:10:38;27.80;90.50
2579;DHT22;1299;48.282;14.398;2023-07-31T12:13:08;28.20;90.30
2579;DHT22;1299;48.282;14.398;2023-07-31T12:15:40;28.30;87.30
2579;DHT22;1299;48.282;14.398;2023-07-31T12:18:09;27.90;90.20
2579;DHT22;1299;48.282;14.398;2023-07-31T12:20:42;28.10;90.20
2579;DHT22;1299;48.282;14.398;2023-07-31T12:23:16;28.70;88.40
2579;DHT22;1299;48.282;14.398;2023-07-31T12:25:43;28.70;87.70
2579;DHT22;1299;48.282;14.398;2023-07-31T12:28:11;27.70;84.00
2579;DHT22;1299;48.282;14.398;2023-07-31T12:30:39;27.20;87.60
2579;DHT22;1299;48.282;14.398;2023-07-31T12:33:12;27.90;89.60
2579;DHT22;1299;48.282;14.398;2023-07-31T12:35:42;28.30;89.80
2579;DHT22;1299;48.282;14.398;2023-07-31T12:38:10;28.50;87.60
2579;DHT22;1299;48.282;14.398;2023-07-31T12:40:38;28.50;88.40
2579;DHT22;1299;48.282;14.398;2023-07-31T12:43:05;28.30;87.90
2579;DHT22;1299;48.282;14.398;2023-07-31T12:45:34;28.00;86.90
2579;DHT22;1299;48.282;14.398;2023-07-31T12:48:02;28.30;86.60
2579;DHT22;1299;48.282;14.398;2023-07-31T12:50:29;28.00;85.30
2579;DHT22;1299;48.282;14.398;2023-07-31T12:52:56;27.60;87.10
2579;DHT22;1299;48.282;14.398;2023-07-31T12:55:23;27.20;86.60
2579;DHT22;1299;48.282;14.398;2023-07-31T12:57:51;27.20;88.00
2579;DHT22;1299;48.282;14.398;2023-07-31T13:00:18;27.40;87.10
2579;DHT22;1299;48.282;14.398;2023-07-31T13:02:46;27.50;86.80
2579;DHT22;1299;48.282;14.398;2023-07-31T13:05:13;27.60;89.40
2579;DHT22;1299;48.282;14.398;2023-07-31T13:07:41;27.50;87.60
2579;DHT22;1299;48.282;14.398;2023-07-31T13:10:08;27.80;87.50
2579;DHT22;1299;48.282;14.398;2023-07-31T13:12:35;27.90;90.50
2579;DHT22;1299;48.282;14.398;2023-07-31T13:15:02;28.30;87.60
2579;DHT22;1299;48.282;14.398;2023-07-31T13:17:29;28.20;87.30
2579;DHT22;1299;48.282;14.398;2023-07-31T13:19:58;28.20;86.40
2579;DHT22;1299;48.282;14.398;2023-07-31T13:22:25;28.10;87.50
2579;DHT22;1299;48.282;14.398;2023-07-31T13:24:52;28.10;86.10
2579;DHT22;1299;48.282;14.398;2023-07-31T13:27:19;27.50;86.60
2579;DHT22;1299;48.282;14.398;2023-07-31T13:29:47;27.10;88.70
2579;DHT22;1299;48.282;14.398;2023-07-31T13:32:16;26.90;88.70
2579;DHT22;1299;48.282;14.398;2023-07-31T13:34:43;27.20;86.90
2579;DHT22;1299;48.282;14.398;2023-07-31T13:37:11;27.00;87.90
2579;DHT22;1299;48.282;14.398;2023-07-31T13:39:39;27.20;87.60
2579;DHT22;1299;48.282;14.398;2023-07-31T13:42:07;27.50;86.50
2579;DHT22;1299;48.282;14.398;2023-07-31T13:44:34;28.00;85.70
2579;DHT22;1299;48.282;14.398;2023-07-31T13:47:01;28.00;85.00
2579;DHT22;1299;48.282;14.398;2023-07-31T13:49:29;27.20;85.80
2579;DHT22;1299;48.282;14.398;2023-07-31T13:51:56;27.30;86.30
2579;DHT22;1299;48.282;14.398;2023-07-31T13:54:25;27.40;87.70
2579;DHT22;1299;48.282;14.398;2023-07-31T13:56:52;27.30;88.70
2579;DHT22;1299;48.282;14.398;2023-07-31T13:59:19;27.90;87.40
2579;DHT22;1299;48.282;14.398;2023-07-31T14:01:47;27.70;85.40
2579;DHT22;1299;48.282;14.398;2023-07-31T14:04:14;27.70;86.30
2579;DHT22;1299;48.282;14.398;2023-07-31T14:06:41;28.00;86.50
2579;DHT22;1299;48.282;14.398;2023-07-31T14:09:07;28.20;86.60
2579;DHT22;1299;48.282;14.398;2023-07-31T14:11:36;27.80;86.20
2579;DHT22;1299;48.282;14.398;2023-07-31T14:14:03;27.70;84.60
2579;DHT22;1299;48.282;14.398;2023-07-31T14:16:30;27.40;84.30
2579;DHT22;1299;48.282;14.398;2023-07-31T14:18:57;27.20;85.50
2579;DHT22;1299;48.282;14.398;2023-07-31T14:21:25;27.10;85.30
2579;DHT22;1299;48.282;14.398;2023-07-31T14:23:52;27.40;88.70
2579;DHT22;1299;48.282;14.398;2023-07-31T14:26:19;27.60;85.80
2579;DHT22;1299;48.282;14.398;2023-07-31T14:28:47;27.60;84.90
2579;DHT22;1299;48.282;14.398;2023-07-31T14:31:14;27.60;87.30
2579;DHT22;1299;48.282;14.398;2023-07-31T14:33:41;27.90;86.70
2579;DHT22;1299;48.282;14.398;2023-07-31T14:36:08;28.10;87.50
2579;DHT22;1299;48.282;14.398;2023-07-31T14:38:35;28.10;86.00
2579;DHT22;1299;48.282;14.398;2023-07-31T14:41:02;28.00;84.40
2579;DHT22;1299;48.282;14.398;2023-07-31T14:43:29;28.10;86.30
2579;DHT22;1299;48.282;14.398;2023-07-31T14:45:57;28.30;85.70
2579;DHT22;1299;48.282;14.398;2023-07-31T14:48:25;28.20;85.00
2579;DHT22;1299;48.282;14.398;2023-07-31T14:50:53;28.10;85.50
2579;DHT22;1299;48.282;14.398;2023-07-31T14:53:20;28.00;84.00
2579;DHT22;1299;48.282;14.398;2023-07-31T14:55:47;28.40;86.10
2579;DHT22;1299;48.282;14.398;2023-07-31T14:58:14;28.50;84.30
2579;DHT22;1299;48.282;14.398;2023-07-31T15:00:42;28.50;85.40
2579;DHT22;1299;48.282;14.398;2023-07-31T15:03:11;28.50;85.90
2579;DHT22;1299;48.282;14.398;2023-07-31T15:05:38;28.50;85.50
2579;DHT22;1299;48.282;14.398;2023-07-31T15:08:05;28.40;84.60
2579;DHT22;1299;48.282;14.398;2023-07-31T15:10:32;28.50;87.10
2579;DHT22;1299;48.282;14.398;2023-07-31T15:12:59;28.50;84.40
2579;DHT22;1299;48.282;14.398;2023-07-31T15:15:27;28.60;83.80
2579;DHT22;1299;48.282;14.398;2023-07-31T15:17:54;28.50;82.50
2579;DHT22;1299;48.282;14.398;2023-07-31T15:20:22;28.20;82.80
2579;DHT22;1299;48.282;14.398;2023-07-31T15:22:49;27.70;83.50
2579;DHT22;1299;48.282;14.398;2023-07-31T15:25:16;27.60;84.30
2579;DHT22;1299;48.282;14.398;2023-07-31T15:27:43;27.60;81.80
2579;DHT22;1299;48.282;14.398;2023-07-31T15:30:10;27.70;82.60
2579;DHT22;1299;48.282;14.398;2023-07-31T15:32:38;27.70;82.80
2579;DHT22;1299;48.282;14.398;2023-07-31T15:35:06;27.60;83.50
2579;DHT22;1299;48.282;14.398;2023-07-31T15:37:34;27.70;85.40
2579;DHT22;1299;48.282;14.398;2023-07-31T15:40:01;27.80;84.70
2579;DHT22;1299;48.282;14.398;2023-07-31T15:42:28;27.70;83.20
2579;DHT22;1299;48.282;14.398;2023-07-31T15:44:55;27.80;83.50
2579;DHT22;1299;48.282;14.398;2023-07-31T15:47:22;27.70;82.80
2579;DHT22;1299;48.282;14.398;2023-07-31T15:49:49;27.70;83.00